Time;durP1;ratioP1;P1;durP2;ratioP2;P2;SDS_P1;SDS_P2;PMS_P1;PMS_P2;Temp;Humidity;BMP_temperature;BMP_pressure;BME280_temperature;BME280_humidity;BME280_pressure;Samples;Min_cycle;Max_cycle;Signal;HPM_P1;HPM_P2
2021/12/16 00:02:42;;;;;;;2.58;1.48;;;21.30;80.80;;;;;;7843033;28;20174;-47
2021/12/16 00:10:44;;;;;;;2.65;1.30;;;21.20;80.90;;;;;;7842049;28;20166;-47
2021/12/16 00:34:35;;;;;;;3.67;1.30;;;20.90;81.00;;;;;;7842132;28;20170;-47
2021/12/16 00:38:20;;;;;;;2.50;1.30;;;20.90;81.00;;;;;;7841217;28;20200;-48
2021/12/16 00:42:13;;;;;;;2.88;1.13;;;20.80;80.90;;;;;;7841777;28;20205;-47
2021/12/16 00:46:15;;;;;;;1.52;1.38;;;20.80;80.90;;;;;;7841548;28;20256;-47
2021/12/16 00:50:18;;;;;;;1.33;1.00;;;20.80;80.80;;;;;;7840838;28;20174;-47
2021/12/16 00:57:52;;;;;;;1.50;1.30;;;20.80;80.70;;;;;;7840440;28;20228;-48
2021/12/16 01:01:46;;;;;;;5.05;1.38;;;20.80;80.70;;;;;;7841506;28;20182;-47
2021/12/16 01:34:45;;;;;;;1.35;1.10;;;20.70;80.20;;;;;;7840516;28;20170;-48
2021/12/16 01:38:25;;;;;;;1.25;1.10;;;20.70;80.20;;;;;;7835389;28;20320;-48
2021/12/16 01:42:28;;;;;;;1.35;1.00;;;20.60;80.10;;;;;;7839994;28;20181;-48
2021/12/16 01:46:35;;;;;;;1.75;1.02;;;20.60;80.10;;;;;;7839881;28;20292;-47
2021/12/16 01:50:35;;;;;;;1.70;1.10;;;20.60;80.10;;;;;;7837241;28;20653;-48
2021/12/16 01:58:24;;;;;;;1.30;1.10;;;20.60;80.10;;;;;;7839023;28;20268;-47
2021/12/16 02:02:25;;;;;;;2.85;1.10;;;20.50;80.00;;;;;;7839498;28;20186;-48
2021/12/16 02:06:37;;;;;;;1.35;1.10;;;20.50;80.00;;;;;;7839157;28;20213;-47
2021/12/16 02:10:27;;;;;;;1.33;1.10;;;20.50;80.00;;;;;;7838464;28;20543;-47
2021/12/16 02:34:57;;;;;;;1.95;1.17;;;20.40;79.90;;;;;;7838585;28;20589;-48
2021/12/16 02:38:38;;;;;;;1.10;1.00;;;20.40;79.90;;;;;;7837769;28;20223;-47
2021/12/16 02:42:36;;;;;;;1.08;0.98;;;20.40;80.00;;;;;;7838426;28;20178;-47
2021/12/16 02:50:26;;;;;;;1.63;1.00;;;20.30;79.80;;;;;;7838030;28;20247;-47
2021/12/16 02:54:12;;;;;;;2.08;1.08;;;20.30;79.80;;;;;;7838065;28;20300;-48
2021/12/16 02:57:59;;;;;;;1.65;1.20;;;20.30;79.80;;;;;;7837248;28;20252;-47
2021/12/16 03:01:52;;;;;;;1.20;1.10;;;20.30;79.80;;;;;;7838129;28;20185;-47
2021/12/16 03:05:37;;;;;;;2.35;1.17;;;20.20;79.80;;;;;;7837622;28;20228;-47
2021/12/16 03:09:53;;;;;;;3.53;1.15;;;20.20;79.70;;;;;;7837241;28;20173;-48
2021/12/16 03:13:36;;;;;;;2.30;1.13;;;20.30;79.80;;;;;;7837688;28;20655;-46
2021/12/16 03:17:34;;;;;;;1.55;1.33;;;20.20;79.70;;;;;;7837740;28;20202;-49
2021/12/16 03:21:29;;;;;;;1.10;1.00;;;20.20;79.70;;;;;;7837862;28;20197;-48
2021/12/16 03:25:28;;;;;;;1.20;1.10;;;20.20;79.80;;;;;;7837737;28;20225;-47
2021/12/16 03:29:36;;;;;;;2.58;1.00;;;20.20;79.70;;;;;;7840863;28;20235;-47
2021/12/16 03:37:18;;;;;;;1.30;1.10;;;20.20;79.70;;;;;;7843649;28;20197;-47
2021/12/16 03:41:05;;;;;;;1.30;1.20;;;20.10;79.70;;;;;;7842798;28;20177;-47
2021/12/16 03:44:58;;;;;;;1.20;1.10;;;20.20;79.80;;;;;;7843477;28;20288;-48
2021/12/16 03:48:59;;;;;;;1.17;0.95;;;20.10;79.60;;;;;;7842692;28;20204;-47
2021/12/16 03:52:46;;;;;;;1.20;1.10;;;20.10;79.60;;;;;;7843419;28;20266;-47
2021/12/16 03:56:32;;;;;;;1.73;1.13;;;20.10;79.50;;;;;;7843121;28;20667;-47
2021/12/16 04:00:29;;;;;;;2.47;1.27;;;20.10;79.60;;;;;;7842406;28;20204;-47
2021/12/16 04:04:15;;;;;;;1.25;1.10;;;20.00;79.50;;;;;;7843755;28;20239;-47
2021/12/16 04:08:01;;;;;;;1.38;1.27;;;20.10;79.60;;;;;;7842020;28;20216;-48
2021/12/16 04:11:56;;;;;;;1.40;0.90;;;20.00;79.60;;;;;;7842912;28;20178;-48
2021/12/16 04:15:43;;;;;;;1.95;1.13;;;20.00;79.50;;;;;;7842685;28;20205;-48
2021/12/16 04:19:31;;;;;;;3.30;1.40;;;20.00;79.50;;;;;;7841992;28;20182;-48
2021/12/16 04:23:18;;;;;;;2.35;1.23;;;20.00;79.50;;;;;;7842511;28;20217;-47
2021/12/16 04:27:07;;;;;;;2.20;1.38;;;20.00;79.60;;;;;;7842406;28;20213;-47
2021/12/16 04:30:52;;;;;;;1.50;1.23;;;20.00;79.50;;;;;;7841444;28;20174;-47
2021/12/16 04:34:38;;;;;;;2.90;1.00;;;20.00;79.40;;;;;;7842047;28;20236;-48
2021/12/16 04:38:23;;;;;;;1.13;1.02;;;19.90;79.50;;;;;;7840795;28;20174;-48
2021/12/16 04:42:11;;;;;;;1.40;1.20;;;19.90;79.50;;;;;;7841740;28;20204;-48
2021/12/16 04:45:57;;;;;;;1.65;1.33;;;19.90;79.50;;;;;;7841752;28;20206;-47
2021/12/16 04:49:43;;;;;;;2.83;1.52;;;19.90;79.50;;;;;;7840909;28;20178;-47
2021/12/16 04:53:28;;;;;;;2.83;1.65;;;19.90;79.50;;;;;;7841591;28;20178;-47
2021/12/16 04:57:14;;;;;;;1.80;1.70;;;19.90;79.40;;;;;;7841320;28;20209;-47
2021/12/16 05:01:01;;;;;;;2.05;1.48;;;19.90;79.40;;;;;;7840497;28;20193;-47
2021/12/16 05:04:47;;;;;;;2.70;1.80;;;19.90;79.40;;;;;;7841188;28;20683;-47
2021/12/16 05:08:33;;;;;;;1.52;1.27;;;19.90;79.50;;;;;;7840112;28;20816;-47
2021/12/16 05:12:22;;;;;;;1.40;1.30;;;19.80;79.30;;;;;;7840904;28;20511;-48
2021/12/16 05:16:08;;;;;;;2.15;1.48;;;19.90;79.40;;;;;;7840776;28;20202;-47
2021/12/16 05:19:56;;;;;;;2.08;1.60;;;19.80;79.30;;;;;;7840206;28;20243;-47
2021/12/16 05:27:46;;;;;;;3.05;1.50;;;19.80;79.30;;;;;;7839876;28;20675;-48
2021/12/16 05:31:31;;;;;;;1.60;1.50;;;19.80;79.30;;;;;;7840320;28;20552;-47
2021/12/16 05:35:19;;;;;;;2.83;1.52;;;19.80;79.30;;;;;;7838678;28;20201;-48
2021/12/16 05:39:06;;;;;;;4.50;2.25;;;19.80;79.30;;;;;;7839470;28;20216;-47
2021/12/16 05:42:54;;;;;;;2.80;1.75;;;19.80;79.20;;;;;;7839866;28;20432;-47
2021/12/16 05:46:40;;;;;;;9.27;2.25;;;19.70;79.20;;;;;;7839707;28;20252;-48
2021/12/16 05:50:30;;;;;;;12.95;1.95;;;19.80;79.40;;;;;;7855070;28;20177;-52
2021/12/16 05:54:18;;;;;;;12.02;2.33;;;19.80;79.40;;;;;;7870404;28;20174;-47
2021/12/16 05:58:07;;;;;;;17.35;3.17;;;19.70;79.30;;;;;;7870548;28;20197;-47
2021/12/16 06:01:52;;;;;;;19.48;2.72;;;19.80;79.30;;;;;;7870914;28;20191;-48
2021/12/16 06:05:38;;;;;;;24.13;3.10;;;19.70;79.20;;;;;;7870772;28;20208;-48
2021/12/16 06:09:24;;;;;;;13.40;3.10;;;19.70;79.20;;;;;;7870583;28;20550;-48
2021/12/16 06:13:10;;;;;;;25.23;3.58;;;19.70;79.20;;;;;;7870624;28;20199;-47
2021/12/16 06:29:13;;;;;;;19.65;4.32;;;19.70;79.20;;;;;;7869602;28;20181;-47
2021/12/16 06:33:00;;;;;;;15.10;3.97;;;19.60;79.20;;;;;;7869656;28;20878;-48
2021/12/16 06:36:45;;;;;;;7.53;2.80;;;19.60;79.30;;;;;;7869211;28;20735;-47
2021/12/16 06:40:31;;;;;;;9.90;2.75;;;19.60;79.40;;;;;;7869237;28;20551;-48
2021/12/16 06:44:31;;;;;;;6.45;3.13;;;19.60;79.40;;;;;;7869527;28;20189;-48
2021/12/16 06:48:23;;;;;;;10.95;3.05;;;19.60;79.40;;;;;;7869165;28;20201;-48
2021/12/16 06:52:12;;;;;;;13.52;2.97;;;19.70;79.40;;;;;;7869245;28;20704;-48
2021/12/16 06:56:07;;;;;;;11.18;3.25;;;19.60;79.40;;;;;;7869216;28;20197;-48
2021/12/16 07:00:06;;;;;;;10.77;3.55;;;19.60;79.40;;;;;;7869172;28;20700;-47
2021/12/16 07:03:51;;;;;;;13.77;3.38;;;19.60;79.40;;;;;;7868864;28;20173;-47
2021/12/16 07:07:38;;;;;;;11.07;3.72;;;19.60;79.40;;;;;;7868762;28;20212;-48
2021/12/16 07:11:25;;;;;;;7.93;3.05;;;19.60;79.50;;;;;;7869047;28;20690;-48
2021/12/16 07:15:14;;;;;;;9.45;3.70;;;19.60;79.50;;;;;;7868729;28;20192;-48
2021/12/16 07:18:59;;;;;;;10.52;3.05;;;19.60;79.60;;;;;;7868843;28;20205;-47
2021/12/16 07:22:45;;;;;;;10.68;3.17;;;19.60;79.60;;;;;;7869171;28;20181;-48
2021/12/16 07:26:31;;;;;;;9.68;3.20;;;19.60;79.70;;;;;;7868802;28;20197;-47
2021/12/16 07:30:20;;;;;;;11.50;3.55;;;19.50;79.50;;;;;;7866761;28;20173;-46
2021/12/16 07:34:07;;;;;;;18.27;3.85;;;19.60;79.60;;;;;;7869036;28;20177;-48
2021/12/16 07:37:54;;;;;;;7.93;3.67;;;19.60;79.60;;;;;;7868826;28;20542;-47
2021/12/16 07:41:41;;;;;;;10.32;3.63;;;19.60;79.60;;;;;;7868857;28;20184;-46
2021/12/16 07:45:28;;;;;;;7.47;3.40;;;19.60;79.60;;;;;;7868822;28;20258;-48
2021/12/16 07:49:22;;;;;;;12.35;3.63;;;19.60;79.60;;;;;;7868699;28;20221;-47
2021/12/16 07:53:08;;;;;;;9.02;3.40;;;19.60;79.50;;;;;;7866402;28;20264;-48
2021/12/16 07:56:55;;;;;;;8.35;4.38;;;19.60;79.50;;;;;;7868315;28;20200;-48
2021/12/16 08:00:42;;;;;;;7.90;3.22;;;19.60;79.50;;;;;;7868193;28;20184;-48
2021/12/16 08:04:30;;;;;;;7.45;4.05;;;19.60;79.50;;;;;;7868157;28;20181;-48
2021/12/16 08:08:16;;;;;;;11.45;4.20;;;19.60;79.40;;;;;;7867878;28;20217;-47
2021/12/16 08:12:04;;;;;;;8.70;3.83;;;19.60;79.50;;;;;;7868427;28;20173;-48
2021/12/16 08:15:50;;;;;;;7.53;3.65;;;19.60;79.40;;;;;;7872492;28;20246;-48
2021/12/16 08:19:36;;;;;;;10.35;3.65;;;19.60;79.40;;;;;;7873229;28;20174;-47
2021/12/16 08:23:22;;;;;;;19.63;3.78;;;19.50;79.40;;;;;;7873541;28;20222;-48
2021/12/16 08:27:09;;;;;;;14.70;3.70;;;19.50;79.40;;;;;;7873292;28;20758;-48
2021/12/16 08:30:55;;;;;;;12.73;4.10;;;19.50;79.40;;;;;;7872740;28;20170;-47
2021/12/16 08:34:43;;;;;;;10.52;3.78;;;19.50;79.30;;;;;;7873210;28;20178;-48
2021/12/16 08:38:29;;;;;;;10.57;3.65;;;19.50;79.40;;;;;;7872805;28;20184;-48
2021/12/16 08:42:14;;;;;;;9.15;3.70;;;19.50;79.40;;;;;;7872671;28;20185;-47
2021/12/16 08:46:00;;;;;;;16.50;3.92;;;19.50;79.40;;;;;;7872920;28;20197;-47
2021/12/16 08:49:47;;;;;;;12.65;4.07;;;19.50;79.40;;;;;;7872691;28;20177;-47
2021/12/16 08:53:33;;;;;;;12.38;4.22;;;19.50;79.40;;;;;;7871399;28;20649;-47
2021/12/16 08:57:19;;;;;;;10.00;3.70;;;19.40;79.30;;;;;;7872312;28;20224;-47
2021/12/16 09:01:09;;;;;;;5.75;3.78;;;19.50;79.50;;;;;;7872563;28;20238;-47
2021/12/16 09:04:54;;;;;;;6.07;3.67;;;19.50;79.50;;;;;;7872814;28;20197;-48
2021/12/16 09:08:40;;;;;;;7.97;3.83;;;19.50;79.60;;;;;;7872114;28;20213;-47
2021/12/16 09:16:24;;;;;;;10.98;3.72;;;19.40;79.40;;;;;;7872050;28;20681;-47
2021/12/16 09:20:11;;;;;;;6.63;4.20;;;19.40;79.50;;;;;;7871559;28;20174;-47
2021/12/16 09:23:57;;;;;;;8.88;3.65;;;19.40;79.40;;;;;;7871747;28;20173;-47
2021/12/16 09:27:44;;;;;;;10.77;4.20;;;19.40;79.40;;;;;;7871298;28;20221;-47
2021/12/16 09:31:30;;;;;;;8.73;4.13;;;19.40;79.50;;;;;;7871653;28;20205;-46
2021/12/16 09:35:15;;;;;;;7.05;3.90;;;19.40;79.50;;;;;;7871393;28;20197;-47
2021/12/16 09:39:03;;;;;;;8.40;4.03;;;19.40;79.50;;;;;;7871057;28;20178;-47
2021/12/16 09:42:51;;;;;;;10.00;4.28;;;19.40;79.50;;;;;;7871187;28;20264;-47
2021/12/16 09:46:39;;;;;;;6.90;3.90;;;19.40;79.50;;;;;;7870789;28;20245;-48
2021/12/16 09:50:29;;;;;;;5.18;3.90;;;19.40;80.40;;;;;;7870872;28;20185;-49
2021/12/16 09:54:20;;;;;;;9.15;4.50;;;19.30;79.50;;;;;;7868469;28;20173;-48
2021/12/16 09:58:06;;;;;;;12.27;4.90;;;19.30;79.50;;;;;;7867800;28;20193;-47
2021/12/16 10:01:56;;;;;;;5.75;3.65;;;19.30;79.50;;;;;;7870831;28;20188;-47
2021/12/16 10:05:42;;;;;;;8.93;4.70;;;19.30;79.50;;;;;;7870490;28;20243;-47
2021/12/16 10:09:28;;;;;;;8.30;4.53;;;19.30;79.40;;;;;;7870319;28;20185;-47
2021/12/16 10:13:21;;;;;;;9.57;5.53;;;19.30;79.30;;;;;;7870750;28;20182;-47
2021/12/16 10:17:28;;;;;;;11.32;5.15;;;19.30;79.40;;;;;;7870869;28;20197;-47
2021/12/16 10:21:20;;;;;;;8.27;5.25;;;19.30;79.40;;;;;;7870717;28;20188;-48
2021/12/16 10:25:37;;;;;;;10.77;5.30;;;19.30;80.20;;;;;;7869969;28;20552;-47
2021/12/16 10:29:34;;;;;;;8.38;4.85;;;19.30;79.30;;;;;;7857233;28;20201;-49
2021/12/16 10:33:31;;;;;;;8.20;4.88;;;19.40;79.30;;;;;;7869971;28;20212;-48
2021/12/16 10:37:29;;;;;;;13.15;5.20;;;19.40;79.30;;;;;;7869181;28;20196;-48
2021/12/16 10:41:21;;;;;;;10.98;4.82;;;19.40;79.40;;;;;;7869664;28;20699;-48
2021/12/16 10:45:06;;;;;;;10.70;5.30;;;19.40;79.20;;;;;;7869558;28;20285;-47
2021/12/16 10:48:56;;;;;;;8.00;4.80;;;19.40;80.10;;;;;;7868972;28;20201;-48
2021/12/16 10:52:41;;;;;;;7.68;5.10;;;19.50;79.30;;;;;;7869806;28;20307;-48
2021/12/16 10:56:38;;;;;;;9.75;5.10;;;19.40;79.10;;;;;;7869451;28;20813;-47
2021/12/16 11:00:24;;;;;;;7.80;5.13;;;19.50;79.10;;;;;;7868819;28;20208;-47
2021/12/16 11:04:14;;;;;;;8.18;4.97;;;19.50;79.10;;;;;;7869183;28;20184;-47
2021/12/16 11:08:00;;;;;;;7.72;4.82;;;19.60;79.10;;;;;;7868673;28;20217;-47
2021/12/16 11:11:45;;;;;;;7.47;4.30;;;19.60;79.10;;;;;;7869042;28;20177;-47
2021/12/16 11:15:38;;;;;;;6.55;4.28;;;19.60;79.10;;;;;;7869102;28;20735;-48
2021/12/16 11:19:44;;;;;;;9.38;4.47;;;19.70;79.20;;;;;;7868735;28;20173;-47
2021/12/16 11:23:40;;;;;;;8.18;4.22;;;19.70;79.30;;;;;;7868969;28;20740;-47
2021/12/16 11:27:31;;;;;;;11.02;4.80;;;19.70;79.20;;;;;;7868544;28;20240;-47
2021/12/16 11:31:30;;;;;;;5.22;4.32;;;19.80;79.10;;;;;;7868873;28;20531;-47
2021/12/16 11:35:35;;;;;;;8.30;4.95;;;19.90;78.90;;;;;;7868622;28;20288;-48
2021/12/16 11:39:27;;;;;;;6.63;4.88;;;19.90;78.70;;;;;;7868382;28;20165;-47
2021/12/16 11:43:13;;;;;;;12.18;4.60;;;19.90;78.60;;;;;;7868792;28;20182;-48
2021/12/16 11:47:05;;;;;;;7.32;4.60;;;19.90;78.40;;;;;;7868553;28;20251;-47
2021/12/16 11:51:04;;;;;;;7.80;4.68;;;20.00;78.40;;;;;;7873006;28;20264;-48
2021/12/16 11:55:14;;;;;;;11.18;4.75;;;20.00;78.40;;;;;;7874597;28;20185;-47
2021/12/16 11:59:00;;;;;;;5.88;3.67;;;20.00;78.30;;;;;;7864060;28;20280;-47
2021/12/16 12:02:54;;;;;;;8.05;3.92;;;20.00;78.20;;;;;;7874305;28;20689;-47
2021/12/16 12:06:45;;;;;;;7.63;4.32;;;20.00;78.20;;;;;;7873870;28;20220;-48
2021/12/16 12:10:41;;;;;;;7.10;3.83;;;20.10;78.00;;;;;;7873600;28;20523;-47
2021/12/16 12:14:34;;;;;;;5.35;4.05;;;20.10;78.00;;;;;;7873177;28;20188;-47
2021/12/16 12:18:43;;;;;;;6.07;3.92;;;20.10;77.90;;;;;;7873488;28;20860;-48
2021/12/16 12:22:28;;;;;;;5.38;4.15;;;20.10;77.80;;;;;;7873530;28;20189;-47
2021/12/16 12:26:19;;;;;;;6.30;4.18;;;20.10;77.80;;;;;;7873395;28;20284;-47
2021/12/16 12:30:07;;;;;;;7.90;3.78;;;20.10;77.70;;;;;;7873006;28;20174;-47
2021/12/16 12:33:53;;;;;;;7.78;4.05;;;20.10;78.20;;;;;;7873329;28;20180;-47
2021/12/16 12:37:43;;;;;;;7.13;3.70;;;20.10;77.60;;;;;;7872844;28;20292;-47
2021/12/16 12:41:29;;;;;;;4.72;3.38;;;20.10;77.70;;;;;;7872899;28;20208;-47
2021/12/16 12:45:16;;;;;;;5.28;3.72;;;20.10;77.70;;;;;;7872992;28;20209;-47
2021/12/16 12:49:09;;;;;;;7.63;3.40;;;20.10;77.70;;;;;;7872640;28;20257;-48
2021/12/16 12:52:59;;;;;;;7.72;3.35;;;20.00;77.70;;;;;;7872613;28;20177;-49
2021/12/16 12:56:45;;;;;;;5.47;3.15;;;20.10;78.10;;;;;;7873337;28;20201;-48
2021/12/16 13:00:39;;;;;;;8.50;3.13;;;20.00;77.70;;;;;;7872081;28;20234;-48
2021/12/16 13:04:28;;;;;;;5.80;3.45;;;20.10;77.70;;;;;;7872173;28;20526;-47
2021/12/16 13:08:14;;;;;;;4.07;3.30;;;20.00;77.70;;;;;;7871939;28;20212;-47
2021/12/16 13:12:02;;;;;;;7.60;2.88;;;20.10;77.70;;;;;;7872192;28;20173;-48
2021/12/16 13:16:12;;;;;;;6.93;2.75;;;20.00;77.90;;;;;;7872066;28;20342;-47
2021/12/16 13:28:03;;;;;;;6.03;2.95;;;20.10;78.00;;;;;;7871357;28;20697;-48
2021/12/16 13:32:08;;;;;;;6.97;2.75;;;20.00;78.00;;;;;;7871535;28;20181;-48
2021/12/16 13:36:04;;;;;;;4.38;2.95;;;20.00;78.20;;;;;;7871493;28;20272;-47
2021/12/16 13:40:12;;;;;;;5.13;2.75;;;20.10;78.50;;;;;;7870728;28;20181;-47
2021/12/16 13:44:10;;;;;;;4.35;2.80;;;20.00;78.40;;;;;;7869005;28;20209;-48
2021/12/16 13:48:25;;;;;;;4.70;2.83;;;20.00;78.50;;;;;;7870777;28;20212;-47
2021/12/16 14:08:45;;;;;;;6.25;2.38;;;20.00;78.80;;;;;;7869891;28;20673;-48
2021/12/16 14:13:03;;;;;;;6.30;2.50;;;20.00;78.70;;;;;;7869779;28;20169;-47
2021/12/16 14:25:07;;;;;;;3.00;2.47;;;20.10;78.80;;;;;;7870266;28;20209;-48
2021/12/16 14:37:31;;;;;;;2.35;2.10;;;20.10;78.90;;;;;;7869944;28;20292;-48
2021/12/16 14:46:04;;;;;;;6.60;2.33;;;20.10;79.00;;;;;;7869422;28;20218;-49
2021/12/16 14:49:47;;;;;;;5.13;2.60;;;20.10;78.70;;;;;;7867465;28;20207;-48
2021/12/16 14:53:41;;;;;;;7.30;2.78;;;20.00;78.50;;;;;;7869257;28;20538;-47
2021/12/16 14:57:32;;;;;;;6.18;2.50;;;20.10;78.80;;;;;;7868928;28;20250;-47
2021/12/16 15:01:23;;;;;;;8.98;2.83;;;20.10;78.80;;;;;;7870048;28;20172;-47
2021/12/16 15:05:34;;;;;;;15.45;3.75;;;20.10;78.50;;;;;;7869748;28;20247;-47
2021/12/16 15:09:28;;;;;;;3.53;2.10;;;20.10;78.50;;;;;;7868813;28;20201;-47
2021/12/16 15:13:22;;;;;;;4.57;2.00;;;20.00;78.40;;;;;;7869102;28;20674;-47
2021/12/16 15:31:40;;;;;;;4.05;2.67;;;20.10;79.20;;;;;;7869151;28;20246;-47
2021/12/16 15:35:46;;;;;;;2.65;2.45;;;20.30;77.90;;;;;;7823881;28;20187;-47
2021/12/16 15:38:43;;;;;;;6.53;2.30;;;20.30;77.80;;;;;;7874633;28;20662;-47
2021/12/16 15:42:49;;;;;;;4.80;2.40;;;20.50;77.90;;;;;;7874794;28;20550;-48
2021/12/16 15:46:34;;;;;;;6.22;2.20;;;20.50;78.00;;;;;;7874926;28;20208;-47
2021/12/16 15:50:31;;;;;;;5.63;2.35;;;20.70;78.30;;;;;;7874584;28;20199;-49
2021/12/16 15:54:18;;;;;;;13.95;3.80;;;20.80;78.00;;;;;;7874468;28;20172;-49
2021/12/16 15:58:11;;;;;;;8.35;3.78;;;20.80;76.80;;;;;;7873956;28;20205;-48
2021/12/16 16:01:59;;;;;;;11.93;3.33;;;20.80;76.90;;;;;;7872111;28;20169;-47
2021/12/16 16:05:49;;;;;;;10.82;3.40;;;20.90;77.50;;;;;;7874441;28;20205;-48
2021/12/16 16:09:39;;;;;;;10.50;2.80;;;21.10;77.70;;;;;;7856324;22;20237;-54
2021/12/16 16:13:29;;;;;;;5.88;2.90;;;21.10;77.40;;;;;;7812148;28;20178;-55
2021/12/16 16:17:18;;;;;;;8.15;2.60;;;21.30;77.50;;;;;;7811990;28;20206;-56
2021/12/16 16:21:16;;;;;;;13.43;2.80;;;21.40;77.50;;;;;;7811284;28;20261;-56
2021/12/16 16:25:04;;;;;;;4.63;2.67;;;21.50;77.40;;;;;;7811730;28;20232;-57
2021/12/16 16:28:52;;;;;;;6.47;2.45;;;21.60;77.40;;;;;;7810908;28;20222;-56
2021/12/16 16:32:57;;;;;;;12.55;3.45;;;21.70;77.30;;;;;;7806250;28;20175;-55
2021/12/16 16:36:48;;;;;;;6.28;2.90;;;21.80;76.90;;;;;;7784080;28;20242;-57
2021/12/16 16:40:40;;;;;;;17.00;3.00;;;21.90;77.50;;;;;;7781941;28;20210;-56
2021/12/16 16:44:27;;;;;;;8.82;2.63;;;22.00;77.50;;;;;;7802535;28;20187;-54
2021/12/16 16:48:30;;;;;;;10.18;2.60;;;22.20;77.40;;;;;;7810112;28;20226;-57
2021/12/16 16:52:28;;;;;;;24.33;2.72;;;22.30;77.50;;;;;;7785554;28;20214;-57
2021/12/16 16:56:14;;;;;;;8.60;2.83;;;22.40;77.40;;;;;;7780516;28;20267;-55
2021/12/16 17:00:07;;;;;;;18.80;2.90;;;22.50;77.50;;;;;;7810312;28;20175;-56
2021/12/16 17:03:53;;;;;;;10.35;2.53;;;22.50;77.40;;;;;;7810661;28;20186;-56
2021/12/16 17:07:43;;;;;;;12.00;2.78;;;22.60;77.30;;;;;;7809732;28;20293;-56
2021/12/16 17:11:29;;;;;;;14.50;2.85;;;22.60;77.30;;;;;;7801768;28;20265;-55
2021/12/16 17:15:35;;;;;;;11.63;2.92;;;22.60;77.30;;;;;;7808823;28;20185;-55
2021/12/16 17:19:21;;;;;;;13.80;3.13;;;22.50;77.50;;;;;;7808531;28;20191;-56
2021/12/16 17:23:13;;;;;;;15.93;3.53;;;22.50;77.70;;;;;;7809151;28;20908;-54
2021/12/16 17:27:05;;;;;;;12.77;2.67;;;22.40;78.00;;;;;;7808834;28;20613;-56
2021/12/16 17:30:50;;;;;;;8.30;2.30;;;22.30;78.10;;;;;;7808474;28;20175;-56
2021/12/16 17:35:16;;;;;;;8.30;2.28;;;22.30;78.30;;;;;;7808980;28;20181;-56
2021/12/16 17:39:11;;;;;;;11.13;2.80;;;22.20;78.60;;;;;;7659041;29;20849;-55
2021/12/16 17:43:00;;;;;;;10.50;2.40;;;22.20;78.90;;;;;;7653933;29;20875;-56
2021/12/16 17:46:55;;;;;;;12.85;2.50;;;22.10;79.00;;;;;;7652674;29;20305;-56
2021/12/16 17:50:47;;;;;;;8.38;3.13;;;22.10;79.10;;;;;;7669154;28;20185;-55
2021/12/16 17:54:56;;;;;;;11.40;2.33;;;22.10;79.40;;;;;;7711914;28;20320;-56
2021/12/16 17:58:43;;;;;;;13.27;2.78;;;22.10;79.90;;;;;;7707652;28;20234;-57
2021/12/16 18:02:29;;;;;;;10.35;2.95;;;22.10;79.70;;;;;;7688223;28;20193;-56
2021/12/16 18:06:22;;;;;;;14.88;3.13;;;22.20;79.90;;;;;;7680542;29;20698;-57
2021/12/16 18:10:10;;;;;;;10.25;3.15;;;22.20;79.80;;;;;;7679518;29;20280;-55
2021/12/16 18:13:59;;;;;;;11.00;3.42;;;22.30;79.70;;;;;;7712679;28;20222;-55
2021/12/16 18:17:59;;;;;;;15.18;3.45;;;22.40;79.60;;;;;;7805811;28;20199;-55
2021/12/16 18:21:48;;;;;;;19.33;5.05;;;22.40;79.40;;;;;;7807347;28;20229;-56
2021/12/16 18:25:40;;;;;;;21.98;7.20;;;22.50;79.50;;;;;;7807904;28;20549;-54
2021/12/16 18:29:30;;;;;;;17.35;9.25;;;22.60;79.30;;;;;;7806957;28;20774;-56
2021/12/16 18:33:21;;;;;;;15.43;11.40;;;22.60;79.50;;;;;;7807031;28;20268;-56
2021/12/16 18:37:12;;;;;;;17.55;12.85;;;22.80;79.70;;;;;;7807140;28;20195;-56
2021/12/16 18:41:06;;;;;;;25.13;15.65;;;22.90;79.80;;;;;;7806750;28;20258;-56
2021/12/16 18:45:04;;;;;;;22.85;17.45;;;23.10;79.80;;;;;;7807780;28;20171;-56
2021/12/16 18:49:06;;;;;;;22.90;18.65;;;23.30;79.80;;;;;;7807172;28;20216;-56
2021/12/16 18:57:00;;;;;;;24.83;19.23;;;23.40;79.50;;;;;;7806212;28;20206;-57
2021/12/16 19:00:58;;;;;;;29.17;18.75;;;23.40;79.50;;;;;;7806595;28;20174;-56
2021/12/16 19:04:46;;;;;;;24.85;17.23;;;23.50;79.70;;;;;;7806974;28;20571;-55
2021/12/16 19:08:32;;;;;;;26.17;15.93;;;23.40;79.80;;;;;;7803802;28;20591;-55
2021/12/16 19:12:24;;;;;;;23.08;14.52;;;23.40;79.80;;;;;;7805960;28;20770;-55
2021/12/16 19:16:10;;;;;;;23.63;13.23;;;23.30;79.60;;;;;;7805766;28;20254;-56
2021/12/16 19:19:56;;;;;;;20.73;12.23;;;23.20;79.80;;;;;;7804668;28;20175;-57
2021/12/16 19:23:46;;;;;;;19.77;11.43;;;23.10;79.60;;;;;;7805244;28;20257;-53
2021/12/16 19:27:31;;;;;;;17.58;10.55;;;23.00;79.70;;;;;;7804615;28;20214;-56
2021/12/16 19:31:20;;;;;;;16.55;9.15;;;22.90;79.70;;;;;;7805412;28;20632;-56
2021/12/16 19:35:09;;;;;;;16.55;8.32;;;22.80;79.70;;;;;;7804890;28;20178;-57
2021/12/16 19:38:55;;;;;;;28.65;7.65;;;22.60;77.50;;;;;;7804827;28;20199;-57
2021/12/16 19:42:41;;;;;;;26.00;8.57;;;22.40;80.20;;;;;;7805696;28;20648;-55
2021/12/16 19:46:27;;;;;;;10.95;6.63;;;22.40;82.10;;;;;;7803100;28;20211;-56
2021/12/16 19:50:13;;;;;;;21.55;7.60;;;22.40;83.30;;;;;;7805032;28;20265;-56
2021/12/16 19:53:59;;;;;;;13.70;5.63;;;22.40;80.60;;;;;;7804632;28;20245;-57
2021/12/16 19:57:47;;;;;;;19.50;6.22;;;22.30;82.20;;;;;;7804350;28;20194;-56
2021/12/16 20:01:36;;;;;;;12.30;4.85;;;22.30;82.50;;;;;;7805365;28;20806;-57
2021/12/16 20:05:23;;;;;;;8.15;4.55;;;22.50;82.80;;;;;;7805232;28;20182;-53
2021/12/16 20:09:15;;;;;;;16.38;4.78;;;22.60;82.40;;;;;;7804646;28;20211;-57
2021/12/16 20:13:09;;;;;;;17.35;3.85;;;22.70;82.40;;;;;;7810279;28;20248;-56
2021/12/16 20:17:00;;;;;;;12.75;4.00;;;22.80;82.50;;;;;;7810062;28;20206;-56
2021/12/16 20:20:50;;;;;;;10.38;3.47;;;23.00;82.70;;;;;;7803953;28;20198;-56
2021/12/16 20:24:42;;;;;;;9.27;3.13;;;23.10;82.70;;;;;;7779561;28;20218;-56
2021/12/16 20:28:36;;;;;;;14.37;3.70;;;23.20;82.20;;;;;;7799097;28;20441;-54
2021/12/16 20:32:30;;;;;;;14.30;3.30;;;23.20;82.40;;;;;;7795861;28;20190;-52
2021/12/16 20:36:22;;;;;;;11.60;3.17;;;23.40;82.60;;;;;;7805848;28;20198;-53
2021/12/16 20:40:13;;;;;;;8.35;2.83;;;23.50;82.80;;;;;;7784521;28;20183;-51
2021/12/16 20:44:03;;;;;;;8.55;3.03;;;23.60;82.80;;;;;;7779550;28;20187;-51
2021/12/16 20:47:53;;;;;;;4.68;2.80;;;23.70;82.30;;;;;;7778804;28;20277;-52
2021/12/16 20:51:44;;;;;;;5.53;2.80;;;23.80;82.30;;;;;;7779302;28;20167;-52
2021/12/16 20:55:31;;;;;;;10.52;3.30;;;23.90;82.00;;;;;;7778466;28;20183;-54
2021/12/16 20:59:20;;;;;;;11.63;2.70;;;24.00;81.70;;;;;;7778425;28;20211;-54
2021/12/16 21:03:06;;;;;;;8.50;2.97;;;24.00;82.50;;;;;;7782226;28;20216;-51
2021/12/16 21:06:54;;;;;;;7.22;2.97;;;24.00;81.30;;;;;;7778739;28;20795;-52
2021/12/16 21:10:42;;;;;;;7.47;2.70;;;24.00;81.40;;;;;;7778482;28;20172;-51
2021/12/16 21:14:27;;;;;;;5.45;2.33;;;23.90;81.30;;;;;;7794906;28;20611;-51
2021/12/16 21:18:16;;;;;;;9.27;2.92;;;23.90;81.60;;;;;;7807802;28;20276;-54
2021/12/16 21:22:01;;;;;;;5.68;2.60;;;23.90;81.60;;;;;;7809245;28;20225;-54
2021/12/16 21:25:48;;;;;;;12.60;2.65;;;23.80;81.60;;;;;;7791041;28;20191;-53
2021/12/16 21:29:33;;;;;;;8.45;2.53;;;23.70;81.40;;;;;;7777577;28;20662;-53
2021/12/16 21:33:24;;;;;;;7.05;2.50;;;23.70;81.60;;;;;;7776723;28;20171;-56
2021/12/16 21:37:13;;;;;;;7.55;2.30;;;23.60;81.60;;;;;;7799806;28;20680;-52
2021/12/16 21:41:05;;;;;;;6.00;2.53;;;23.50;81.70;;;;;;7807439;28;20187;-54
2021/12/16 21:44:51;;;;;;;4.78;2.70;;;23.40;82.00;;;;;;7809152;28;20666;-52
2021/12/16 21:48:38;;;;;;;5.25;2.40;;;23.40;82.10;;;;;;7808024;28;20580;-51
2021/12/16 21:52:24;;;;;;;9.63;2.30;;;23.30;81.80;;;;;;7804970;28;20743;-53
2021/12/16 21:56:11;;;;;;;10.02;2.67;;;23.20;81.80;;;;;;7791467;28;20594;-54
2021/12/16 21:59:57;;;;;;;10.52;2.83;;;23.00;82.90;;;;;;7795199;28;20178;-52
2021/12/16 22:03:53;;;;;;;7.57;2.40;;;23.00;82.00;;;;;;7807498;28;20193;-52
2021/12/16 22:07:39;;;;;;;7.80;2.70;;;22.90;82.10;;;;;;7862317;22;20232;-52
2021/12/16 22:11:26;;;;;;;5.57;2.47;;;22.90;82.10;;;;;;7870233;28;20173;-51
2021/12/16 22:15:16;;;;;;;7.13;2.38;;;22.80;82.00;;;;;;7869675;28;20173;-50
2021/12/16 22:19:06;;;;;;;6.10;2.22;;;22.70;82.10;;;;;;7867955;28;20194;-50
2021/12/16 22:22:55;;;;;;;6.20;2.60;;;22.70;82.30;;;;;;7869992;28;20185;-49
2021/12/16 22:26:41;;;;;;;12.82;2.88;;;22.50;82.20;;;;;;7869666;28;20296;-49
2021/12/16 22:30:27;;;;;;;4.57;2.20;;;22.50;82.30;;;;;;7868931;28;20176;-50
2021/12/16 22:34:15;;;;;;;4.15;2.03;;;22.40;82.30;;;;;;7868381;28;20177;-49
2021/12/16 22:38:01;;;;;;;8.63;2.58;;;22.40;82.30;;;;;;7868448;28;20674;-49
2021/12/16 22:41:49;;;;;;;5.15;2.28;;;22.30;82.40;;;;;;7865968;28;20196;-50
2021/12/16 22:45:36;;;;;;;6.72;2.00;;;22.20;82.30;;;;;;7869618;28;20189;-48
2021/12/16 22:49:21;;;;;;;6.15;2.58;;;22.10;82.50;;;;;;7868604;28;20220;-51